Terminal Aerodrome Forecast
Issued by NWS Charleston, SC

Home | Current Version | Previous Version | Text Only | Print | Product List | Glossary On
Versions: 1 2 3 4 5 6 7 8 9 10 11 12 13 14 15 16 17 18 19 20 21 22 23
000
FTUS42 KCHS 171100
TAFSAV
TAF
KSAV 171124Z 1712/1812 04009G14KT P6SM SCT025 BKN250
     FM171300 05014G20KT P6SM SCT030 BKN050
     FM180000 05009KT P6SM SCT025 BKN250
     FM180800 02012KT P6SM SCT015 BKN035=

USA.gov is the U.S. government's official web portal to all federal, state and local government web resources and services.